Time;durP1;ratioP1;P1;durP2;ratioP2;P2;SDS_P1;SDS_P2;PMS_P1;PMS_P2;Temp;Humidity;BMP_temperature;BMP_pressure;BME280_temperature;BME280_humidity;BME280_pressure;Samples;Min_cycle;Max_cycle;Signal;HPM_P1;HPM_P2
2023/11/25 00:00:42;;;;;;;19.27;2.85;;;6.80;99.90;;;;;;5063226;28;20023;-76
2023/11/25 00:03:09;;;;;;;17.70;3.55;;;6.90;99.90;;;;;;5060739;28;20442;-76
2023/11/25 00:05:35;;;;;;;15.43;3.30;;;6.90;99.90;;;;;;5064927;28;20486;-77
2023/11/25 00:08:00;;;;;;;9.20;2.47;;;6.90;99.90;;;;;;5062582;28;20040;-76
2023/11/25 00:10:26;;;;;;;9.07;2.22;;;6.80;99.90;;;;;;5072522;28;20531;-76
2023/11/25 00:12:53;;;;;;;12.48;2.83;;;6.80;99.90;;;;;;5061658;28;20025;-76
2023/11/25 00:15:19;;;;;;;19.80;3.40;;;6.80;99.90;;;;;;5064072;28;20467;-76
2023/11/25 00:17:45;;;;;;;22.48;3.35;;;6.90;99.90;;;;;;5062243;28;20021;-76
2023/11/25 00:20:11;;;;;;;15.65;2.58;;;6.70;99.90;;;;;;5068210;28;21166;-76
2023/11/25 00:22:37;;;;;;;18.35;2.72;;;6.70;99.90;;;;;;5073167;28;20020;-76
2023/11/25 00:25:03;;;;;;;16.85;2.58;;;6.60;99.90;;;;;;5068853;28;20021;-76
2023/11/25 00:27:29;;;;;;;16.42;3.08;;;6.60;99.90;;;;;;5061149;28;20205;-76
2023/11/25 00:29:55;;;;;;;9.50;2.38;;;6.70;99.90;;;;;;5063740;28;20503;-76
2023/11/25 00:32:21;;;;;;;14.93;2.70;;;6.70;99.90;;;;;;5073315;28;20041;-76
2023/11/25 00:34:47;;;;;;;17.60;2.97;;;6.70;99.90;;;;;;5061595;28;20021;-76
2023/11/25 00:37:13;;;;;;;13.85;2.65;;;6.80;99.90;;;;;;5066449;28;20020;-76
2023/11/25 00:39:38;;;;;;;12.75;2.80;;;6.80;99.90;;;;;;5066397;28;20032;-76
2023/11/25 00:42:04;;;;;;;7.68;2.25;;;6.90;99.90;;;;;;5057197;28;20074;-76
2023/11/25 00:44:30;;;;;;;12.30;3.53;;;6.90;99.90;;;;;;5065256;28;20116;-77
2023/11/25 00:46:56;;;;;;;15.82;2.55;;;6.90;99.90;;;;;;5062275;28;20421;-77
2023/11/25 00:49:22;;;;;;;13.73;2.70;;;6.90;99.90;;;;;;5063818;28;20036;-76
2023/11/25 00:51:48;;;;;;;21.52;2.88;;;6.90;99.90;;;;;;5051913;28;20052;-76
2023/11/25 00:54:13;;;;;;;19.85;3.53;;;6.80;99.90;;;;;;5068772;28;20025;-77
2023/11/25 00:56:39;;;;;;;18.95;2.80;;;6.80;99.90;;;;;;5067954;28;20478;-77
2023/11/25 00:59:05;;;;;;;14.10;2.83;;;6.80;99.90;;;;;;5071496;28;20054;-76
2023/11/25 01:01:30;;;;;;;18.50;3.33;;;6.80;99.90;;;;;;5058993;28;20053;-76
2023/11/25 01:03:56;;;;;;;16.67;3.17;;;6.70;99.90;;;;;;5054421;28;20102;-77
2023/11/25 01:06:22;;;;;;;11.00;2.25;;;6.70;99.90;;;;;;5064640;28;20029;-77
2023/11/25 01:08:47;;;;;;;16.92;2.75;;;6.70;99.90;;;;;;5054044;28;20395;-76
2023/11/25 01:11:16;;;;;;;10.20;2.60;;;6.70;99.90;;;;;;5061975;28;20399;-77
2023/11/25 01:13:41;;;;;;;12.82;2.33;;;6.70;99.90;;;;;;5062605;28;20029;-77
2023/11/25 01:16:16;;;;;;;15.52;2.17;;;6.70;99.90;;;;;;5064443;28;20028;-76
2023/11/25 01:18:42;;;;;;;12.82;2.60;;;6.60;99.90;;;;;;5062609;28;20020;-76
2023/11/25 01:21:09;;;;;;;18.63;3.53;;;6.60;99.90;;;;;;5067440;28;20027;-77
2023/11/25 01:23:34;;;;;;;16.60;2.40;;;6.60;99.90;;;;;;5064313;28;20104;-76
2023/11/25 01:26:00;;;;;;;18.23;3.10;;;6.60;99.90;;;;;;5050922;28;20163;-77
2023/11/25 01:28:26;;;;;;;21.13;3.33;;;6.50;99.90;;;;;;5058668;28;20779;-76
2023/11/25 01:30:52;;;;;;;18.25;3.75;;;6.50;99.90;;;;;;5063214;28;20497;-77
2023/11/25 01:33:17;;;;;;;19.73;2.58;;;6.50;99.90;;;;;;5068000;28;20028;-77
2023/11/25 01:35:45;;;;;;;19.48;3.42;;;6.50;99.90;;;;;;5069857;28;20848;-76
2023/11/25 01:38:11;;;;;;;14.23;3.20;;;6.50;99.90;;;;;;5059945;28;20020;-77
2023/11/25 01:40:37;;;;;;;11.77;2.30;;;6.40;99.90;;;;;;5062430;28;20039;-77
2023/11/25 01:43:08;;;;;;;13.93;2.88;;;6.40;99.90;;;;;;5065250;28;20104;-77
2023/11/25 01:45:34;;;;;;;15.05;3.17;;;6.40;99.90;;;;;;5066512;28;20059;-76
2023/11/25 01:48:02;;;;;;;21.50;2.90;;;6.40;99.90;;;;;;5067921;28;20028;-76
2023/11/25 01:50:35;;;;;;;14.65;2.58;;;6.40;99.90;;;;;;5064647;28;20466;-76
2023/11/25 01:53:02;;;;;;;14.73;2.67;;;6.40;99.90;;;;;;5056333;28;20060;-78
2023/11/25 01:55:32;;;;;;;19.92;3.33;;;6.40;99.90;;;;;;5060136;28;20107;-77
2023/11/25 01:57:59;;;;;;;15.85;2.65;;;6.30;99.90;;;;;;5057377;28;20059;-77
2023/11/25 02:00:25;;;;;;;14.80;2.72;;;6.40;99.90;;;;;;5063605;28;20045;-76
2023/11/25 02:02:50;;;;;;;17.25;2.80;;;6.30;99.90;;;;;;5070522;28;20071;-76
2023/11/25 02:05:16;;;;;;;11.38;2.63;;;6.20;99.90;;;;;;5060562;28;20093;-76
2023/11/25 02:07:42;;;;;;;11.32;2.85;;;6.20;99.90;;;;;;5064794;28;20040;-77
2023/11/25 02:10:11;;;;;;;13.90;3.20;;;6.30;99.90;;;;;;5067568;28;20483;-76
2023/11/25 02:12:40;;;;;;;20.50;2.75;;;6.30;99.90;;;;;;5065185;28;20033;-76
2023/11/25 02:15:10;;;;;;;14.82;2.80;;;6.20;99.90;;;;;;5062035;28;20028;-76
2023/11/25 02:17:38;;;;;;;10.65;2.97;;;6.20;99.90;;;;;;5061250;28;20107;-76
2023/11/25 02:20:06;;;;;;;13.73;2.58;;;6.20;99.90;;;;;;5061279;28;20066;-76
2023/11/25 02:22:32;;;;;;;16.55;2.90;;;6.20;99.90;;;;;;5061045;28;20029;-76
2023/11/25 02:24:58;;;;;;;15.82;3.20;;;6.20;99.90;;;;;;5064588;28;20017;-76
2023/11/25 02:27:25;;;;;;;19.70;2.95;;;6.10;99.90;;;;;;5062739;28;20917;-76
2023/11/25 02:29:52;;;;;;;14.45;2.25;;;6.00;99.90;;;;;;5065994;28;20442;-76
2023/11/25 02:32:18;;;;;;;14.90;3.70;;;6.00;99.90;;;;;;5079776;28;20097;-76
2023/11/25 02:34:45;;;;;;;16.70;2.90;;;6.00;99.90;;;;;;5061589;28;20478;-76
2023/11/25 02:37:13;;;;;;;14.30;2.78;;;6.00;99.90;;;;;;5065101;28;20029;-76
2023/11/25 02:39:39;;;;;;;18.98;2.63;;;6.00;99.90;;;;;;5078326;28;20046;-76
2023/11/25 02:42:06;;;;;;;14.77;2.60;;;6.00;99.90;;;;;;5066644;28;20025;-76
2023/11/25 02:44:32;;;;;;;17.15;3.33;;;6.10;99.90;;;;;;5071579;28;20352;-76
2023/11/25 02:46:58;;;;;;;18.75;3.30;;;6.10;99.90;;;;;;5075563;28;20032;-75
2023/11/25 02:49:25;;;;;;;15.20;2.88;;;6.10;99.90;;;;;;5063041;28;20390;-76
2023/11/25 02:51:54;;;;;;;18.85;2.92;;;6.20;99.90;;;;;;5069752;28;20051;-76
2023/11/25 02:54:21;;;;;;;14.63;3.28;;;6.30;99.90;;;;;;5070270;28;20060;-76
2023/11/25 02:56:47;;;;;;;13.20;2.25;;;6.20;99.90;;;;;;5070225;28;20017;-76
2023/11/25 02:59:13;;;;;;;18.20;3.13;;;6.10;99.90;;;;;;5071294;28;20020;-76
2023/11/25 03:01:47;;;;;;;16.60;2.30;;;6.10;99.90;;;;;;5072116;28;20021;-77
2023/11/25 03:04:17;;;;;;;12.90;2.40;;;6.10;99.90;;;;;;5068038;28;20151;-76
2023/11/25 03:06:45;;;;;;;16.83;2.97;;;6.10;99.90;;;;;;5069772;28;20047;-76
2023/11/25 03:09:11;;;;;;;22.17;3.22;;;6.00;99.90;;;;;;5063625;28;20122;-76
2023/11/25 03:11:37;;;;;;;15.75;2.45;;;6.00;99.90;;;;;;5059931;28;20176;-76
2023/11/25 03:14:03;;;;;;;16.48;2.42;;;5.90;99.90;;;;;;5069595;28;20108;-76
2023/11/25 03:16:32;;;;;;;17.45;2.72;;;5.90;99.90;;;;;;5063154;28;20029;-75
2023/11/25 03:18:58;;;;;;;15.20;2.55;;;6.00;99.90;;;;;;5059466;28;20417;-76
2023/11/25 03:21:24;;;;;;;17.02;2.92;;;6.10;99.90;;;;;;5075237;28;20155;-75
2023/11/25 03:23:50;;;;;;;13.88;3.10;;;6.00;99.90;;;;;;5064997;28;20071;-76
2023/11/25 03:26:16;;;;;;;17.40;2.80;;;6.00;99.90;;;;;;5066640;28;20098;-76
2023/11/25 03:28:44;;;;;;;18.50;2.30;;;5.90;99.90;;;;;;5067568;28;20075;-75
2023/11/25 03:31:10;;;;;;;17.92;2.92;;;5.80;99.90;;;;;;5063365;28;20028;-75
2023/11/25 03:33:36;;;;;;;18.33;2.80;;;5.80;99.90;;;;;;5062927;28;20108;-76
2023/11/25 03:36:03;;;;;;;19.30;2.15;;;5.70;99.90;;;;;;5070685;28;20047;-75
2023/11/25 03:38:29;;;;;;;15.90;2.53;;;5.70;99.90;;;;;;5072065;28;20082;-76
2023/11/25 03:40:56;;;;;;;17.25;2.85;;;5.70;99.90;;;;;;5066290;28;20020;-75
2023/11/25 03:43:24;;;;;;;13.52;2.60;;;5.70;99.90;;;;;;5069320;28;20489;-75
2023/11/25 03:45:50;;;;;;;21.33;2.72;;;5.70;99.90;;;;;;5057760;28;20086;-75
2023/11/25 03:48:16;;;;;;;18.30;3.17;;;5.70;99.90;;;;;;5071115;28;20421;-75
2023/11/25 03:50:45;;;;;;;10.68;2.78;;;5.60;99.90;;;;;;5069105;28;20043;-75
2023/11/25 03:53:11;;;;;;;23.52;2.70;;;5.50;99.90;;;;;;5067459;28;20100;-75
2023/11/25 03:55:37;;;;;;;20.58;2.35;;;5.50;99.90;;;;;;5070572;28;20413;-75
2023/11/25 03:58:04;;;;;;;18.02;3.03;;;5.50;99.90;;;;;;5077458;28;20036;-75
2023/11/25 04:00:32;;;;;;;14.38;2.30;;;5.40;99.90;;;;;;5066502;28;20356;-75
2023/11/25 04:02:57;;;;;;;10.15;2.05;;;5.50;99.90;;;;;;5070829;28;20466;-75
2023/11/25 04:05:23;;;;;;;22.17;3.22;;;5.40;99.90;;;;;;5076811;28;20035;-75
2023/11/25 04:07:50;;;;;;;13.63;2.58;;;5.40;99.90;;;;;;5074029;28;20039;-75
2023/11/25 04:10:16;;;;;;;12.95;2.58;;;5.50;99.90;;;;;;5062525;28;20390;-75
2023/11/25 04:12:46;;;;;;;21.75;2.80;;;5.50;99.90;;;;;;5071191;28;20028;-75
2023/11/25 04:15:15;;;;;;;16.27;3.33;;;5.50;99.90;;;;;;5064098;28;20040;-75
2023/11/25 04:17:41;;;;;;;13.82;3.00;;;5.40;99.90;;;;;;5071687;28;20067;-75
2023/11/25 04:20:23;;;;;;;11.75;2.10;;;5.50;99.90;;;;;;5069013;28;20044;-75
2023/11/25 04:22:50;;;;;;;16.95;2.90;;;5.40;99.90;;;;;;5067069;28;20023;-75
2023/11/25 04:25:16;;;;;;;16.48;2.65;;;5.50;99.90;;;;;;5063634;28;20024;-75
2023/11/25 04:27:46;;;;;;;17.23;3.25;;;5.40;99.90;;;;;;5060751;28;20025;-75
2023/11/25 04:30:13;;;;;;;14.65;2.72;;;5.50;99.90;;;;;;5066423;28;20999;-75
2023/11/25 04:32:40;;;;;;;14.13;2.85;;;5.40;99.90;;;;;;5065796;28;20013;-75
2023/11/25 04:35:07;;;;;;;15.85;2.65;;;5.50;99.90;;;;;;5069141;28;20056;-75
2023/11/25 04:37:33;;;;;;;16.30;3.03;;;5.60;99.90;;;;;;5066531;28;20064;-75
2023/11/25 04:40:00;;;;;;;16.00;3.13;;;5.50;99.90;;;;;;5066537;28;20022;-75
2023/11/25 04:42:25;;;;;;;16.13;2.53;;;5.50;99.90;;;;;;5065498;28;20140;-75
2023/11/25 04:44:51;;;;;;;17.48;3.17;;;5.60;99.90;;;;;;5070120;28;20032;-75
2023/11/25 04:47:17;;;;;;;20.73;3.25;;;5.60;99.90;;;;;;5067624;28;20020;-75
2023/11/25 04:49:43;;;;;;;12.43;2.70;;;5.60;99.90;;;;;;5063850;28;20040;-75
2023/11/25 04:52:09;;;;;;;11.38;2.55;;;5.70;99.90;;;;;;5062828;28;20020;-75
2023/11/25 04:54:35;;;;;;;16.08;2.65;;;5.70;99.90;;;;;;5070888;28;20062;-75
2023/11/25 04:57:04;;;;;;;16.60;3.22;;;5.60;99.90;;;;;;5063661;28;20025;-75
2023/11/25 04:59:30;;;;;;;23.52;4.60;;;5.70;99.90;;;;;;5065908;28;20016;-75
2023/11/25 05:01:56;;;;;;;19.95;3.42;;;5.70;99.90;;;;;;5061632;28;20466;-75
2023/11/25 05:04:21;;;;;;;17.15;3.20;;;5.70;99.90;;;;;;5068139;28;20017;-75
2023/11/25 05:06:47;;;;;;;13.05;2.95;;;5.70;99.90;;;;;;5067626;28;20055;-75
2023/11/25 05:09:13;;;;;;;13.65;2.60;;;5.70;99.90;;;;;;5063138;28;20374;-75
2023/11/25 05:11:42;;;;;;;14.98;2.42;;;5.70;99.90;;;;;;5062021;28;20422;-75
2023/11/25 05:14:08;;;;;;;14.65;2.78;;;5.60;99.90;;;;;;5053947;28;20024;-75
2023/11/25 05:16:33;;;;;;;23.05;3.70;;;5.50;99.90;;;;;;5062172;28;20074;-75
2023/11/25 05:18:59;;;;;;;14.27;3.00;;;5.50;99.90;;;;;;5073201;28;20530;-75
2023/11/25 05:21:25;;;;;;;13.30;3.42;;;5.50;99.90;;;;;;5068795;28;20099;-75
2023/11/25 05:23:51;;;;;;;19.08;2.95;;;5.50;99.90;;;;;;5058931;28;20426;-76
2023/11/25 05:26:17;;;;;;;20.63;3.22;;;5.50;99.90;;;;;;5056636;28;20016;-75
2023/11/25 05:28:43;;;;;;;17.75;3.38;;;5.60;99.90;;;;;;5066850;28;20124;-75
2023/11/25 05:31:09;;;;;;;27.85;3.45;;;5.60;99.90;;;;;;5065983;28;20024;-75
2023/11/25 05:33:35;;;;;;;20.33;3.35;;;5.60;99.90;;;;;;5062914;28;20040;-75
2023/11/25 05:36:02;;;;;;;23.83;3.85;;;5.70;99.90;;;;;;5065597;28;20487;-75
2023/11/25 05:38:28;;;;;;;20.83;4.10;;;5.70;99.90;;;;;;5062842;28;20036;-75
2023/11/25 05:40:54;;;;;;;13.70;3.08;;;5.70;99.90;;;;;;5063210;28;20406;-75
2023/11/25 05:43:20;;;;;;;21.52;3.30;;;5.80;99.90;;;;;;5059058;28;20025;-76
2023/11/25 05:45:46;;;;;;;16.27;3.10;;;5.70;99.90;;;;;;5063998;28;20021;-77
2023/11/25 05:48:12;;;;;;;21.15;3.15;;;5.80;99.90;;;;;;5061207;28;20032;-78
2023/11/25 05:50:38;;;;;;;20.65;2.63;;;5.80;99.90;;;;;;5068618;28;20104;-77
2023/11/25 05:53:04;;;;;;;18.98;3.10;;;5.90;99.90;;;;;;5067466;28;20109;-77
2023/11/25 05:55:30;;;;;;;20.65;3.03;;;5.80;99.90;;;;;;5065016;28;20020;-77
2023/11/25 05:57:56;;;;;;;16.08;2.95;;;5.90;99.90;;;;;;5059844;28;20066;-77
2023/11/25 06:00:22;;;;;;;21.30;3.10;;;5.90;99.90;;;;;;5060551;28;20028;-77
2023/11/25 06:02:49;;;;;;;16.55;2.92;;;5.90;99.90;;;;;;5066486;28;20157;-77
2023/11/25 06:05:15;;;;;;;18.73;3.10;;;5.90;99.90;;;;;;5056172;28;20494;-77
2023/11/25 06:07:40;;;;;;;17.98;2.97;;;5.90;99.90;;;;;;5065377;28;20033;-77
2023/11/25 06:10:09;;;;;;;22.75;3.03;;;5.90;99.90;;;;;;5060534;28;20641;-77
2023/11/25 06:12:34;;;;;;;18.30;3.58;;;5.90;99.90;;;;;;5064742;28;20036;-77
2023/11/25 06:15:00;;;;;;;15.80;3.17;;;6.00;99.90;;;;;;5066971;28;20398;-77
2023/11/25 06:17:26;;;;;;;21.58;3.78;;;6.10;99.90;;;;;;5063417;28;20391;-78
2023/11/25 06:19:53;;;;;;;24.75;3.00;;;6.00;99.90;;;;;;5065055;28;20028;-77
2023/11/25 06:22:20;;;;;;;19.42;2.90;;;6.00;99.90;;;;;;5073715;28;20029;-77
2023/11/25 06:24:46;;;;;;;16.33;3.15;;;6.00;99.90;;;;;;5062999;28;20091;-77
2023/11/25 06:27:12;;;;;;;21.13;3.28;;;6.00;99.90;;;;;;5065084;28;20024;-77
2023/11/25 06:29:39;;;;;;;18.08;2.50;;;6.00;99.90;;;;;;5061778;28;20036;-77
2023/11/25 06:32:07;;;;;;;15.13;2.85;;;6.10;99.90;;;;;;5068703;28;20025;-77
2023/11/25 06:34:34;;;;;;;21.98;3.22;;;6.10;99.90;;;;;;5063799;28;20024;-77
2023/11/25 06:37:00;;;;;;;20.88;3.17;;;6.10;99.90;;;;;;5068648;28;20043;-77
2023/11/25 06:39:31;;;;;;;15.90;3.15;;;6.10;99.90;;;;;;5076141;28;20024;-77
2023/11/25 06:41:57;;;;;;;19.90;2.83;;;6.00;99.90;;;;;;5063070;28;20017;-77
2023/11/25 06:44:22;;;;;;;22.20;2.85;;;6.00;99.90;;;;;;5072251;28;20111;-77
2023/11/25 06:46:49;;;;;;;15.32;3.22;;;6.00;99.90;;;;;;5059696;28;20082;-77
2023/11/25 06:49:15;;;;;;;20.83;3.10;;;6.00;99.90;;;;;;5067769;28;20418;-77
2023/11/25 06:51:41;;;;;;;16.80;2.78;;;6.00;99.90;;;;;;5072291;28;20025;-76
2023/11/25 06:54:11;;;;;;;11.57;2.50;;;6.10;99.90;;;;;;5068027;28;20535;-76
2023/11/25 06:56:40;;;;;;;18.42;2.63;;;6.00;99.90;;;;;;5066441;28;20020;-77
2023/11/25 06:59:06;;;;;;;15.10;2.38;;;6.00;99.90;;;;;;5058493;28;20040;-76
2023/11/25 07:01:32;;;;;;;15.27;2.65;;;6.10;99.90;;;;;;5067009;28;20020;-77
2023/11/25 07:03:58;;;;;;;14.20;2.05;;;6.20;99.90;;;;;;5068053;28;20086;-76
2023/11/25 07:06:24;;;;;;;14.88;3.22;;;6.10;99.90;;;;;;5059602;28;20487;-77
2023/11/25 07:08:50;;;;;;;10.30;2.30;;;6.10;99.90;;;;;;5063631;28;20454;-77
2023/11/25 07:11:16;;;;;;;18.38;3.38;;;6.10;99.90;;;;;;5063162;28;20034;-77
2023/11/25 07:13:42;;;;;;;17.25;3.55;;;6.00;99.90;;;;;;5072282;28;20387;-77
2023/11/25 07:16:11;;;;;;;12.90;2.55;;;6.00;99.90;;;;;;5071631;28;20182;-77
2023/11/25 07:18:42;;;;;;;10.82;2.50;;;6.00;99.90;;;;;;5063879;28;20109;-77
2023/11/25 07:21:11;;;;;;;15.48;2.85;;;5.90;99.90;;;;;;5065832;28;20028;-77
2023/11/25 07:23:38;;;;;;;20.27;2.30;;;5.90;99.90;;;;;;5059150;28;20017;-77
2023/11/25 07:26:05;;;;;;;7.70;2.25;;;6.00;99.90;;;;;;5063881;28;20111;-77
2023/11/25 07:28:32;;;;;;;16.80;2.97;;;6.00;99.90;;;;;;5062428;28;20017;-77
2023/11/25 07:30:59;;;;;;;16.90;2.58;;;6.00;99.90;;;;;;5056674;28;20025;-76
2023/11/25 07:33:25;;;;;;;16.55;2.88;;;6.10;99.90;;;;;;5067994;28;20121;-77
2023/11/25 07:35:51;;;;;;;21.25;3.05;;;6.00;99.90;;;;;;5058947;28;20489;-76
2023/11/25 07:38:17;;;;;;;17.08;2.97;;;6.00;99.90;;;;;;5071412;28;20023;-77
2023/11/25 07:40:43;;;;;;;13.45;3.08;;;6.10;99.90;;;;;;5064045;28;20020;-76
2023/11/25 07:43:09;;;;;;;13.43;2.50;;;6.10;99.90;;;;;;5061945;28;20492;-77
2023/11/25 07:45:35;;;;;;;15.77;2.63;;;6.10;99.90;;;;;;5057057;28;20013;-77
2023/11/25 07:48:00;;;;;;;16.08;3.50;;;6.10;99.90;;;;;;5063056;28;20047;-76
2023/11/25 07:50:26;;;;;;;12.65;2.97;;;6.10;99.90;;;;;;5062394;28;20052;-76
2023/11/25 07:52:52;;;;;;;17.83;3.53;;;6.10;99.90;;;;;;5061220;28;20066;-76
2023/11/25 07:55:18;;;;;;;18.02;4.50;;;6.10;99.90;;;;;;5066917;28;20039;-76
2023/11/25 07:57:46;;;;;;;22.42;4.20;;;6.10;99.90;;;;;;5054685;28;20090;-76
2023/11/25 08:00:15;;;;;;;19.88;4.32;;;6.10;99.90;;;;;;5065009;28;20051;-77
2023/11/25 08:02:45;;;;;;;25.75;4.65;;;6.10;99.90;;;;;;5071737;28;20467;-76
2023/11/25 08:05:11;;;;;;;23.02;4.50;;;6.00;99.90;;;;;;5067111;28;20893;-76
2023/11/25 08:07:37;;;;;;;19.00;5.00;;;6.00;99.90;;;;;;5058693;28;20495;-76
2023/11/25 08:10:04;;;;;;;20.17;4.57;;;6.10;99.90;;;;;;5064690;28;20025;-76
2023/11/25 08:12:30;;;;;;;15.45;3.70;;;6.00;99.90;;;;;;5063727;28;20033;-77
2023/11/25 08:14:57;;;;;;;15.20;3.53;;;6.10;99.90;;;;;;5062259;28;20031;-76
2023/11/25 08:17:22;;;;;;;20.73;3.60;;;6.00;99.90;;;;;;5073925;28;20032;-76
2023/11/25 08:19:49;;;;;;;16.42;3.75;;;5.80;99.90;;;;;;5068876;28;20017;-76
2023/11/25 08:22:16;;;;;;;26.63;3.15;;;6.00;99.90;;;;;;5063202;28;20470;-76
2023/11/25 08:24:42;;;;;;;10.77;2.22;;;6.00;99.90;;;;;;5069996;28;20025;-76
2023/11/25 08:27:08;;;;;;;11.35;2.78;;;6.00;99.90;;;;;;5069496;28;20025;-77
2023/11/25 08:29:35;;;;;;;14.10;1.80;;;6.00;99.90;;;;;;5057102;28;20029;-77
2023/11/25 08:32:01;;;;;;;22.63;2.85;;;6.10;99.90;;;;;;5059899;28;20025;-77
2023/11/25 08:34:26;;;;;;;11.45;2.30;;;6.10;99.90;;;;;;5057844;28;20675;-76
2023/11/25 08:36:52;;;;;;;16.65;2.22;;;6.10;99.90;;;;;;5058086;28;20063;-76
2023/11/25 08:39:25;;;;;;;13.55;2.60;;;6.20;99.90;;;;;;5058776;28;20383;-76
2023/11/25 08:41:52;;;;;;;5.43;1.50;;;6.20;99.90;;;;;;5060599;28;20028;-76
2023/11/25 08:44:20;;;;;;;6.63;1.85;;;6.20;99.90;;;;;;5023385;28;20746;-77
2023/11/25 08:46:46;;;;;;;14.32;2.20;;;6.30;99.90;;;;;;5052388;28;20531;-76
2023/11/25 08:49:21;;;;;;;10.63;1.75;;;6.30;99.90;;;;;;5050249;28;20023;-77
2023/11/25 08:51:49;;;;;;;7.53;1.88;;;6.40;99.90;;;;;;5057498;28;20016;-76
2023/11/25 08:54:17;;;;;;;5.70;2.28;;;6.40;99.90;;;;;;5052402;28;20166;-76
2023/11/25 08:56:45;;;;;;;11.07;2.38;;;6.40;99.90;;;;;;5049348;28;20024;-76
2023/11/25 08:59:14;;;;;;;12.65;2.38;;;6.40;99.90;;;;;;5050983;28;20057;-76
2023/11/25 09:01:42;;;;;;;4.97;2.03;;;6.40;99.90;;;;;;5051623;28;20119;-76
2023/11/25 09:04:08;;;;;;;8.25;2.83;;;6.40;99.90;;;;;;5049682;28;20453;-76
2023/11/25 09:06:39;;;;;;;6.28;2.50;;;6.40;99.90;;;;;;5052680;28;20063;-76
2023/11/25 09:09:09;;;;;;;8.10;2.15;;;6.40;99.90;;;;;;5054157;28;20483;-76
2023/11/25 09:11:35;;;;;;;10.07;2.42;;;6.50;99.90;;;;;;5053505;28;20032;-76
2023/11/25 09:14:04;;;;;;;6.45;2.45;;;6.50;99.90;;;;;;5056164;28;20029;-76
2023/11/25 09:16:30;;;;;;;12.38;3.38;;;6.60;99.90;;;;;;5051931;28;20097;-76
2023/11/25 09:18:56;;;;;;;8.32;2.33;;;6.60;99.90;;;;;;5052940;28;20075;-76
2023/11/25 09:21:23;;;;;;;9.45;2.13;;;6.60;99.90;;;;;;5052775;28;20025;-76
2023/11/25 09:23:48;;;;;;;7.75;1.95;;;6.70;99.90;;;;;;5052089;28;20032;-76
2023/11/25 09:26:14;;;;;;;8.18;2.15;;;6.80;99.90;;;;;;5037342;28;20517;-76
2023/11/25 09:28:40;;;;;;;9.38;2.92;;;6.80;99.90;;;;;;5047261;28;20021;-76
2023/11/25 09:31:06;;;;;;;14.18;2.90;;;6.80;99.90;;;;;;5036709;28;20561;-76
2023/11/25 09:33:32;;;;;;;11.52;2.35;;;6.80;99.90;;;;;;5053676;28;20537;-75
2023/11/25 09:35:59;;;;;;;7.05;2.22;;;6.90;99.90;;;;;;5048271;28;20033;-76
2023/11/25 09:38:25;;;;;;;5.22;1.67;;;7.00;99.90;;;;;;5048500;28;20033;-76
2023/11/25 09:40:51;;;;;;;10.48;2.05;;;7.10;99.90;;;;;;5054212;28;20083;-76
2023/11/25 09:43:18;;;;;;;8.15;1.38;;;7.20;99.90;;;;;;5050460;28;20052;-76
2023/11/25 09:45:45;;;;;;;7.85;1.90;;;7.20;99.90;;;;;;5054997;28;20033;-76
2023/11/25 09:48:11;;;;;;;6.88;1.75;;;7.20;99.90;;;;;;5046559;28;20017;-76
2023/11/25 09:50:37;;;;;;;6.65;1.40;;;7.20;99.90;;;;;;5049743;28;20034;-76
2023/11/25 09:53:15;;;;;;;8.63;1.70;;;7.30;99.90;;;;;;5051212;28;20020;-76
2023/11/25 09:55:49;;;;;;;5.57;1.35;;;7.40;99.90;;;;;;5053820;28;20024;-76
2023/11/25 09:58:17;;;;;;;5.72;1.38;;;7.40;99.90;;;;;;5051046;28;20067;-76
2023/11/25 10:00:43;;;;;;;5.10;1.02;;;7.50;99.90;;;;;;5053465;28;20736;-76
2023/11/25 10:03:12;;;;;;;6.15;1.38;;;7.70;99.90;;;;;;5054669;28;20031;-76
2023/11/25 10:05:37;;;;;;;7.05;1.33;;;7.80;99.90;;;;;;5051585;28;20024;-76
2023/11/25 10:08:04;;;;;;;5.32;1.38;;;7.80;99.90;;;;;;5055157;28;20032;-76
2023/11/25 10:10:30;;;;;;;8.32;1.30;;;7.80;99.90;;;;;;5050114;28;21788;-76
2023/11/25 10:12:56;;;;;;;8.75;1.65;;;7.80;99.90;;;;;;5051146;28;20021;-76
2023/11/25 10:15:24;;;;;;;8.13;1.40;;;7.80;99.90;;;;;;5049141;28;20037;-76
2023/11/25 10:17:50;;;;;;;10.90;1.35;;;7.80;99.90;;;;;;5047624;28;20083;-76
2023/11/25 10:20:19;;;;;;;10.95;1.65;;;7.90;99.90;;;;;;5047814;28;20027;-76
2023/11/25 10:22:53;;;;;;;7.40;1.50;;;7.90;99.90;;;;;;5053147;28;20305;-76
2023/11/25 10:25:21;;;;;;;7.00;1.80;;;7.90;99.90;;;;;;5048920;28;20013;-76
2023/11/25 10:27:47;;;;;;;16.73;1.98;;;7.90;99.90;;;;;;5054886;28;20142;-78
2023/11/25 10:30:14;;;;;;;7.45;1.50;;;7.90;99.90;;;;;;5051871;28;20037;-77
2023/11/25 10:32:40;;;;;;;11.38;1.23;;;7.80;99.90;;;;;;5052664;28;20099;-77
2023/11/25 10:35:10;;;;;;;8.70;1.42;;;7.80;99.90;;;;;;5053387;28;20490;-77
2023/11/25 10:37:40;;;;;;;14.80;2.42;;;7.80;99.90;;;;;;5047124;28;20040;-77
2023/11/25 10:40:11;;;;;;;7.78;1.42;;;7.80;99.90;;;;;;5052733;28;20074;-77
2023/11/25 10:42:45;;;;;;;8.65;1.35;;;7.90;99.90;;;;;;5044343;28;20056;-77
2023/11/25 10:45:15;;;;;;;6.70;1.50;;;7.90;99.90;;;;;;5045954;28;20047;-76
2023/11/25 10:47:42;;;;;;;5.65;1.23;;;8.00;99.90;;;;;;5051753;28;20021;-76
2023/11/25 10:50:08;;;;;;;6.82;1.48;;;8.00;99.90;;;;;;5045941;28;20028;-76
2023/11/25 10:52:38;;;;;;;3.38;0.88;;;7.90;99.90;;;;;;5050535;28;20191;-77
2023/11/25 10:55:06;;;;;;;7.50;1.33;;;7.90;99.90;;;;;;5044818;28;20083;-76
2023/11/25 10:57:35;;;;;;;5.47;1.40;;;7.90;99.90;;;;;;5053947;28;20021;-77
2023/11/25 11:00:04;;;;;;;9.20;1.52;;;8.10;99.90;;;;;;5056236;28;20015;-77
2023/11/25 11:02:43;;;;;;;5.75;1.23;;;8.00;99.90;;;;;;5070291;28;20466;-76
2023/11/25 11:05:09;;;;;;;4.15;1.38;;;8.10;99.90;;;;;;5056534;28;20115;-77
2023/11/25 11:07:46;;;;;;;13.52;1.70;;;8.20;99.90;;;;;;5047167;28;20544;-77
2023/11/25 11:10:17;;;;;;;10.68;1.65;;;8.30;99.90;;;;;;5054455;28;20028;-77
2023/11/25 11:12:51;;;;;;;7.00;2.25;;;8.30;99.90;;;;;;5050039;28;20379;-76
2023/11/25 11:15:20;;;;;;;11.38;2.80;;;8.30;99.90;;;;;;5048864;28;20051;-76
2023/11/25 11:18:13;;;;;;;14.45;4.25;;;8.30;99.90;;;;;;5051827;28;20516;-76
2023/11/25 11:20:46;;;;;;;9.30;3.22;;;8.30;99.90;;;;;;5055176;28;20059;-77
2023/11/25 11:23:15;;;;;;;9.55;2.83;;;8.20;99.90;;;;;;5051115;28;20105;-77
2023/11/25 11:26:14;;;;;;;15.13;2.95;;;8.20;99.90;;;;;;5051545;28;20020;-77
2023/11/25 11:29:00;;;;;;;11.65;2.25;;;8.20;99.90;;;;;;5049778;28;20011;-77
2023/11/25 11:31:52;;;;;;;11.57;2.30;;;8.20;99.90;;;;;;5057090;28;20112;-77
2023/11/25 11:34:18;;;;;;;16.70;5.93;;;8.20;99.90;;;;;;5040123;28;20029;-76
2023/11/25 11:36:44;;;;;;;12.75;3.90;;;8.10;99.90;;;;;;5052739;28;20025;-77
2023/11/25 11:39:30;;;;;;;7.57;2.97;;;8.20;99.90;;;;;;5044826;28;20028;-77
2023/11/25 11:41:56;;;;;;;15.00;2.20;;;8.20;99.90;;;;;;5044289;28;20060;-77
2023/11/25 11:44:22;;;;;;;9.68;2.70;;;8.20;99.90;;;;;;5054427;28;20013;-76
2023/11/25 11:46:50;;;;;;;9.68;1.80;;;8.20;99.90;;;;;;5054013;28;20027;-76
2023/11/25 11:49:17;;;;;;;12.20;2.58;;;8.30;99.90;;;;;;5051728;28;20025;-77
2023/11/25 11:52:04;;;;;;;8.55;1.65;;;8.20;99.90;;;;;;5048814;28;20066;-77
2023/11/25 11:54:30;;;;;;;12.38;1.80;;;8.40;99.90;;;;;;5049170;28;20033;-77
2023/11/25 11:57:04;;;;;;;9.05;1.85;;;8.50;99.90;;;;;;5048706;28;20035;-77
2023/11/25 12:00:11;;;;;;;8.00;1.88;;;8.50;99.90;;;;;;5053790;28;20063;-77
2023/11/25 12:02:42;;;;;;;3.95;1.20;;;8.50;99.90;;;;;;5049039;28;20053;-77
2023/11/25 12:05:09;;;;;;;10.93;2.03;;;8.60;99.90;;;;;;5052825;28;20537;-77
2023/11/25 12:07:38;;;;;;;6.30;1.63;;;8.60;99.90;;;;;;5053967;28;20039;-77
2023/11/25 12:10:05;;;;;;;7.28;1.33;;;8.60;99.90;;;;;;5060487;28;20108;-77
2023/11/25 12:12:31;;;;;;;9.57;1.80;;;8.60;99.90;;;;;;5052154;28;20017;-78
2023/11/25 12:14:56;;;;;;;11.27;1.00;;;8.60;99.90;;;;;;5053886;28;20020;-78
2023/11/25 12:17:22;;;;;;;5.45;1.30;;;8.60;99.90;;;;;;5046925;28;20407;-78
2023/11/25 12:19:52;;;;;;;7.43;1.63;;;8.60;99.90;;;;;;5050114;28;20032;-77
2023/11/25 12:22:18;;;;;;;7.78;1.08;;;8.60;99.90;;;;;;5036728;28;20419;-77
2023/11/25 12:24:44;;;;;;;4.28;1.45;;;8.60;99.90;;;;;;5044978;28;20425;-77
2023/11/25 12:27:11;;;;;;;8.70;1.60;;;8.70;99.90;;;;;;5050156;28;20443;-78
2023/11/25 12:29:37;;;;;;;10.00;1.73;;;8.70;99.90;;;;;;5054438;28;20021;-77
2023/11/25 12:32:03;;;;;;;6.97;1.83;;;8.80;99.90;;;;;;5047510;28;20263;-78
2023/11/25 12:34:32;;;;;;;6.75;1.38;;;8.80;99.90;;;;;;5046954;28;20122;-77
2023/11/25 12:36:59;;;;;;;13.27;2.33;;;8.90;99.90;;;;;;5046580;28;20149;-77
2023/11/25 12:39:26;;;;;;;6.90;1.60;;;8.80;99.90;;;;;;5050171;28;20009;-77
2023/11/25 12:41:52;;;;;;;5.60;1.98;;;8.80;99.90;;;;;;5048760;28;20017;-77
2023/11/25 12:44:20;;;;;;;6.18;2.40;;;8.80;99.90;;;;;;5046895;28;20017;-77
2023/11/25 12:47:08;;;;;;;12.80;2.72;;;8.80;99.90;;;;;;5044388;28;20044;-77
2023/11/25 12:49:34;;;;;;;6.43;2.22;;;8.80;99.90;;;;;;5036709;28;20049;-78
2023/11/25 12:52:00;;;;;;;8.30;2.55;;;8.90;99.90;;;;;;5054575;28;20047;-77